Time;durP1;ratioP1;P1;durP2;ratioP2;P2;SDS_P1;SDS_P2;PMS_P1;PMS_P2;Temp;Humidity;BMP_temperature;BMP_pressure;BME280_temperature;BME280_humidity;BME280_pressure;Samples;Min_cycle;Max_cycle;Signal;HPM_P1;HPM_P2
2021/03/16 00:01:13;;;;;;;5.47;1.58;;;;;;;5.71;91.34;100869.44;4987009;28;20104;-75
2021/03/16 00:03:51;;;;;;;4.13;1.80;;;;;;;5.68;91.34;100870.84;4975646;28;20047;-75
2021/03/16 00:06:29;;;;;;;11.75;2.20;;;;;;;5.64;91.36;100874.47;4963594;28;20034;-75
2021/03/16 00:08:55;;;;;;;5.13;2.10;;;;;;;5.56;91.61;100876.06;4973998;28;20446;-75
2021/03/16 00:11:20;;;;;;;6.97;1.92;;;;;;;5.53;92.04;100870.56;4972752;28;20442;-75
2021/03/16 00:13:46;;;;;;;8.43;1.88;;;;;;;5.52;92.13;100885.03;4976169;28;20027;-75
2021/03/16 00:16:11;;;;;;;8.60;2.03;;;;;;;5.56;91.99;100888.59;4972740;28;20062;-75
2021/03/16 00:18:37;;;;;;;6.45;1.77;;;;;;;5.48;91.99;100885.63;4973716;28;20481;-75
2021/03/16 00:21:02;;;;;;;6.82;1.83;;;;;;;5.45;91.45;100896.97;4972619;28;20126;-75
2021/03/16 00:23:28;;;;;;;3.42;1.58;;;;;;;5.42;91.46;100894.09;4974842;28;20038;-75
2021/03/16 00:25:53;;;;;;;5.47;2.10;;;;;;;5.39;91.52;100900.88;4974275;28;20062;-75
2021/03/16 00:28:19;;;;;;;5.28;2.03;;;;;;;5.36;91.50;100909.50;4974457;28;20030;-75
2021/03/16 00:30:44;;;;;;;5.15;2.17;;;;;;;5.35;91.67;100907.94;4989642;28;20427;-75
2021/03/16 00:33:10;;;;;;;6.90;1.75;;;;;;;5.43;91.09;100911.72;4975676;28;20404;-75
2021/03/16 00:35:36;;;;;;;11.68;2.08;;;;;;;5.32;91.79;100905.13;4973884;28;20087;-78
2021/03/16 00:38:01;;;;;;;6.28;2.05;;;;;;;5.36;91.15;100914.06;4969360;28;20039;-76
2021/03/16 00:40:27;;;;;;;5.07;1.90;;;;;;;5.27;91.02;100914.06;4973308;28;20035;-75
2021/03/16 00:42:52;;;;;;;3.30;1.65;;;;;;;5.23;91.49;100921.13;4974531;28;20502;-75
2021/03/16 00:45:18;;;;;;;4.68;1.85;;;;;;;5.21;91.54;100925.97;4955574;28;20043;-75
2021/03/16 00:47:44;;;;;;;5.50;1.55;;;;;;;5.05;92.45;100921.41;4971629;28;20026;-76
2021/03/16 00:50:12;;;;;;;6.55;1.90;;;;;;;5.15;92.27;100932.56;4982572;28;20399;-76
2021/03/16 00:52:39;;;;;;;8.52;1.83;;;;;;;5.07;91.32;100933.31;4986960;28;20109;-76
2021/03/16 00:55:07;;;;;;;5.35;1.75;;;;;;;4.93;92.58;100938.00;4987761;28;20031;-76
2021/03/16 00:57:33;;;;;;;8.63;1.80;;;;;;;4.99;92.02;100934.13;4972161;28;20050;-75
2021/03/16 00:59:58;;;;;;;4.63;2.08;;;;;;;4.89;92.11;100934.41;4974082;28;20034;-76
2021/03/16 01:02:24;;;;;;;3.28;1.65;;;;;;;4.94;92.41;100939.56;4970749;28;20062;-76
2021/03/16 01:04:50;;;;;;;5.10;1.70;;;;;;;4.90;92.30;100937.81;4974152;28;20030;-76
2021/03/16 01:07:15;;;;;;;9.80;1.92;;;;;;;4.88;92.31;100934.72;4971385;28;20026;-76
2021/03/16 01:09:41;;;;;;;11.18;1.92;;;;;;;4.86;92.12;100937.66;4967354;28;20031;-75
2021/03/16 01:12:07;;;;;;;5.22;2.00;;;;;;;4.84;92.67;100936.41;4966915;28;20038;-75
2021/03/16 01:14:33;;;;;;;8.52;2.10;;;;;;;4.75;91.43;100943.59;4973051;28;20034;-75
2021/03/16 01:16:59;;;;;;;6.75;1.73;;;;;;;4.82;92.08;100957.28;4962658;28;20038;-75
2021/03/16 01:19:24;;;;;;;8.85;2.28;;;;;;;4.82;91.61;100954.63;4971676;28;20297;-76
2021/03/16 01:21:50;;;;;;;5.65;2.08;;;;;;;4.91;91.08;100958.09;4957961;28;20059;-76
2021/03/16 01:24:15;;;;;;;5.25;2.00;;;;;;;4.74;91.40;100953.50;4968633;28;20117;-76
2021/03/16 01:26:41;;;;;;;6.60;2.20;;;;;;;4.72;91.54;100950.34;4972362;28;20026;-75
2021/03/16 01:29:06;;;;;;;6.47;1.67;;;;;;;4.74;91.46;100958.81;4973974;28;20383;-75
2021/03/16 01:31:32;;;;;;;3.78;2.20;;;;;;;4.70;90.89;100952.53;4967730;28;20044;-76
2021/03/16 01:33:58;;;;;;;6.13;2.03;;;;;;;4.67;91.03;100957.66;4973656;28;20158;-75
2021/03/16 01:36:23;;;;;;;4.75;1.65;;;;;;;4.67;91.04;100955.78;4973458;28;20042;-75
2021/03/16 01:38:48;;;;;;;7.15;1.98;;;;;;;4.58;90.86;100950.44;4985233;28;20567;-76
2021/03/16 01:41:14;;;;;;;4.90;1.55;;;;;;;4.37;91.36;100953.94;4971293;28;20068;-75
2021/03/16 01:43:39;;;;;;;3.50;1.75;;;;;;;4.47;91.47;100953.69;4973627;28;20404;-76
2021/03/16 01:46:06;;;;;;;6.18;1.60;;;;;;;4.55;91.30;100948.38;4986608;28;20404;-76
2021/03/16 01:48:33;;;;;;;6.50;1.52;;;;;;;4.57;91.21;100953.41;4950778;28;20034;-76
2021/03/16 01:51:02;;;;;;;5.15;1.70;;;;;;;4.61;90.08;100948.25;4962098;28;20046;-76
2021/03/16 01:53:28;;;;;;;6.00;1.33;;;;;;;4.65;90.04;100955.31;4971686;28;20062;-76
2021/03/16 01:55:56;;;;;;;7.28;1.77;;;;;;;4.57;90.11;100954.19;4986660;28;20113;-76
2021/03/16 01:58:43;;;;;;;9.93;1.95;;;;;;;4.52;90.13;100951.66;4965706;28;20054;-76
2021/03/16 02:01:27;;;;;;;6.32;1.70;;;;;;;4.53;90.00;100957.75;4966988;28;20569;-76
2021/03/16 02:04:12;;;;;;;4.90;1.55;;;;;;;4.51;89.77;100952.75;4971275;28;20577;-76
2021/03/16 02:07:18;;;;;;;4.20;1.60;;;;;;;4.49;89.72;100956.81;4973642;28;20081;-76
2021/03/16 02:10:13;;;;;;;5.25;1.45;;;;;;;4.47;89.69;100959.78;4971029;28;20069;-77
2021/03/16 02:13:00;;;;;;;6.90;1.83;;;;;;;4.39;89.75;100955.19;4967197;28;20513;-77
2021/03/16 02:15:47;;;;;;;7.50;2.00;;;;;;;4.36;89.62;100953.16;4965813;28;20594;-76
2021/03/16 02:18:36;;;;;;;7.22;2.38;;;;;;;4.30;89.94;100959.69;4969943;28;20049;-77
2021/03/16 02:21:22;;;;;;;6.10;1.77;;;;;;;4.25;90.17;100961.69;4971160;28;20057;-76
2021/03/16 02:24:08;;;;;;;2.45;1.70;;;;;;;4.24;90.15;100962.81;4961642;28;20050;-76
2021/03/16 02:27:18;;;;;;;3.42;1.45;;;;;;;4.25;90.34;100967.03;4972953;28;20061;-76
2021/03/16 02:30:04;;;;;;;2.88;1.30;;;;;;;4.07;90.72;100973.31;4970376;28;20915;-77
2021/03/16 02:32:50;;;;;;;6.30;1.55;;;;;;;4.02;91.48;100981.44;4971752;28;20566;-76
2021/03/16 02:35:36;;;;;;;2.85;1.38;;;;;;;4.12;91.43;100981.22;4969633;28;20046;-75
2021/03/16 02:38:27;;;;;;;4.88;1.73;;;;;;;4.12;91.13;100983.88;4965276;28;20148;-76
2021/03/16 02:41:15;;;;;;;2.88;1.60;;;;;;;4.05;91.40;100981.63;4970840;28;20050;-76
2021/03/16 02:44:00;;;;;;;6.45;1.38;;;;;;;4.17;91.07;100981.09;4967590;28;20049;-76
2021/03/16 02:46:49;;;;;;;3.47;1.40;;;;;;;4.22;90.32;100988.97;4959487;28;20042;-76
2021/03/16 02:49:38;;;;;;;4.53;1.35;;;;;;;4.12;90.97;100989.22;4970478;28;20050;-76
2021/03/16 02:52:23;;;;;;;3.45;1.23;;;;;;;4.14;91.00;100993.13;4969638;28;20109;-76
2021/03/16 02:55:08;;;;;;;4.95;1.83;;;;;;;4.06;91.46;100988.53;4970696;28;20054;-76
2021/03/16 02:57:53;;;;;;;5.90;1.58;;;;;;;3.95;92.44;100994.41;4966416;28;20085;-76
2021/03/16 03:00:38;;;;;;;4.32;1.58;;;;;;;3.94;92.63;101004.28;4969848;28;20522;-76
2021/03/16 03:03:23;;;;;;;8.07;1.63;;;;;;;4.06;92.09;100993.06;4970730;28;20093;-76
2021/03/16 03:06:09;;;;;;;3.72;1.48;;;;;;;4.06;92.48;101004.53;4969897;28;20061;-76
2021/03/16 03:08:54;;;;;;;2.10;1.15;;;;;;;4.11;92.05;101011.59;4973327;28;20138;-76
2021/03/16 03:11:38;;;;;;;6.10;1.80;;;;;;;3.87;93.79;101014.53;4970145;28;20048;-76
2021/03/16 03:14:22;;;;;;;5.50;1.42;;;;;;;4.04;93.21;101009.38;4972320;28;20049;-76
2021/03/16 03:17:06;;;;;;;5.30;1.60;;;;;;;4.04;93.01;101008.56;4968670;28;20050;-76
2021/03/16 03:19:50;;;;;;;4.78;1.58;;;;;;;4.09;93.35;101009.25;4976702;28;20049;-76
2021/03/16 03:22:41;;;;;;;5.50;1.65;;;;;;;4.10;93.12;101018.03;4953217;28;20566;-76
2021/03/16 03:25:30;;;;;;;2.47;1.35;;;;;;;4.06;94.15;101012.53;4973616;28;20042;-76
2021/03/16 03:28:20;;;;;;;4.32;1.55;;;;;;;4.09;93.85;101019.91;4966762;28;20518;-76
2021/03/16 03:31:06;;;;;;;6.72;1.70;;;;;;;4.09;94.12;101024.44;4971015;28;20109;-76
2021/03/16 03:33:51;;;;;;;5.97;1.65;;;;;;;4.08;93.87;101025.53;4966272;28;20593;-76
2021/03/16 03:36:36;;;;;;;5.32;1.60;;;;;;;3.99;95.44;101033.44;4978256;28;20053;-76
2021/03/16 03:39:22;;;;;;;6.43;1.67;;;;;;;4.03;95.36;101031.75;4970023;28;20079;-76
2021/03/16 03:42:07;;;;;;;6.65;1.90;;;;;;;4.09;95.43;101037.75;4965015;28;20093;-76
2021/03/16 03:44:54;;;;;;;8.63;1.90;;;;;;;4.03;95.40;101038.97;4963114;28;20074;-76
2021/03/16 03:47:40;;;;;;;4.95;1.90;;;;;;;4.02;96.29;101043.53;4958538;28;20037;-76
2021/03/16 03:50:25;;;;;;;10.68;1.88;;;;;;;4.06;96.12;101049.81;4967295;28;20053;-76
2021/03/16 03:53:11;;;;;;;6.82;1.83;;;;;;;3.98;96.36;101041.75;4965007;28;20073;-76
2021/03/16 03:55:55;;;;;;;8.20;2.25;;;;;;;4.01;96.81;101051.78;4963629;28;20053;-76
2021/03/16 03:58:40;;;;;;;9.10;2.30;;;;;;;3.97;97.34;101051.59;4967797;28;20041;-76
2021/03/16 04:01:26;;;;;;;8.45;2.25;;;;;;;4.06;96.99;101049.03;4970823;28;20069;-76
2021/03/16 04:04:11;;;;;;;10.00;2.50;;;;;;;3.97;97.52;101048.19;4979745;28;20053;-76
2021/03/16 04:06:57;;;;;;;5.68;2.10;;;;;;;3.65;98.88;101044.59;4974744;28;20038;-76
2021/03/16 04:09:41;;;;;;;10.80;2.53;;;;;;;3.87;98.69;101057.16;4969664;28;20090;-76
2021/03/16 04:12:25;;;;;;;10.13;2.28;;;;;;;3.80;98.96;101059.44;4970489;28;20042;-76
2021/03/16 04:15:14;;;;;;;10.40;2.63;;;;;;;3.96;98.27;101063.38;4959070;28;20129;-76
2021/03/16 04:17:58;;;;;;;8.48;2.70;;;;;;;3.86;98.83;101057.47;4969462;28;20101;-76
2021/03/16 04:20:43;;;;;;;14.02;3.33;;;;;;;3.78;100.00;101061.63;4960200;28;20062;-77
2021/03/16 04:23:28;;;;;;;13.32;3.63;;;;;;;3.74;100.00;101063.31;4971387;28;20630;-76
2021/03/16 04:26:12;;;;;;;12.00;3.45;;;;;;;3.79;100.00;101071.19;4970376;28;20096;-76
2021/03/16 04:28:56;;;;;;;13.05;3.53;;;;;;;3.94;99.90;101062.06;4964024;28;20058;-76
2021/03/16 04:31:40;;;;;;;10.57;3.80;;;;;;;3.97;99.92;101062.25;4970344;28;20083;-76
2021/03/16 04:34:23;;;;;;;8.60;3.40;;;;;;;3.94;99.94;101067.41;4966865;28;20050;-76
2021/03/16 04:37:08;;;;;;;15.98;4.03;;;;;;;3.94;100.00;101070.88;4967538;28;20177;-76
2021/03/16 04:39:52;;;;;;;14.57;3.72;;;;;;;3.97;100.00;101078.25;4971152;28;20041;-76
2021/03/16 04:42:36;;;;;;;12.63;4.30;;;;;;;4.05;100.00;101080.19;4983888;28;20109;-76
2021/03/16 04:45:20;;;;;;;19.20;4.80;;;;;;;4.14;100.00;101078.38;4985236;28;20486;-76
2021/03/16 04:48:04;;;;;;;19.75;5.55;;;;;;;4.18;100.00;101074.03;4964773;28;20109;-76
2021/03/16 04:50:48;;;;;;;16.15;5.50;;;;;;;4.11;100.00;101084.34;4973503;28;20049;-76
2021/03/16 04:53:32;;;;;;;15.85;5.95;;;;;;;4.26;100.00;101081.31;4968825;28;20062;-76
2021/03/16 04:56:16;;;;;;;20.73;6.45;;;;;;;4.39;100.00;101082.38;4972672;28;20077;-76
2021/03/16 04:59:00;;;;;;;26.92;7.60;;;;;;;4.41;100.00;101088.19;4966995;28;20538;-76
2021/03/16 05:01:44;;;;;;;30.38;8.25;;;;;;;4.51;100.00;101094.06;4984229;28;20082;-76
2021/03/16 05:04:29;;;;;;;28.38;8.85;;;;;;;4.62;100.00;101099.94;4974924;28;20108;-77
2021/03/16 05:07:13;;;;;;;23.90;9.13;;;;;;;4.73;100.00;101098.59;4980045;28;20128;-77
2021/03/16 05:09:57;;;;;;;27.55;8.45;;;;;;;4.85;100.00;101100.72;4966495;28;20054;-76
2021/03/16 05:12:41;;;;;;;41.95;9.43;;;;;;;4.89;100.00;101104.34;4965938;28;20086;-76
2021/03/16 05:15:25;;;;;;;26.63;9.32;;;;;;;4.99;100.00;101112.09;4966984;28;20096;-77
2021/03/16 05:18:08;;;;;;;31.35;8.82;;;;;;;5.00;100.00;101114.44;4967326;28;20109;-76
2021/03/16 05:20:53;;;;;;;25.50;9.52;;;;;;;5.00;100.00;101116.31;4968188;28;20120;-77
2021/03/16 05:23:36;;;;;;;36.22;9.45;;;;;;;4.92;100.00;101125.84;4970450;28;20129;-77
2021/03/16 05:26:22;;;;;;;32.85;9.02;;;;;;;4.88;100.00;101132.13;4973663;28;20053;-76
2021/03/16 05:29:05;;;;;;;37.28;11.05;;;;;;;4.93;100.00;101127.44;4970565;28;20498;-77
2021/03/16 05:31:50;;;;;;;38.75;10.00;;;;;;;4.89;100.00;101141.69;4966925;28;20090;-76
2021/03/16 05:34:34;;;;;;;26.58;9.32;;;;;;;4.95;100.00;101140.47;4965470;28;20042;-77
2021/03/16 05:37:17;;;;;;;29.67;9.25;;;;;;;4.94;100.00;101139.69;4970627;28;20046;-76
2021/03/16 05:40:03;;;;;;;33.95;8.80;;;;;;;5.06;100.00;101147.94;4967695;28;20093;-76
2021/03/16 05:42:47;;;;;;;32.80;8.45;;;;;;;5.02;100.00;101154.97;4971542;28;20068;-77
2021/03/16 05:45:31;;;;;;;33.20;9.63;;;;;;;5.04;100.00;101160.00;4964406;28;20042;-76
2021/03/16 05:48:15;;;;;;;28.45;8.70;;;;;;;5.00;100.00;101159.03;4960792;28;20042;-77
2021/03/16 05:51:00;;;;;;;25.40;7.97;;;;;;;5.02;100.00;101152.28;4959280;28;20092;-77
2021/03/16 05:53:50;;;;;;;21.42;7.72;;;;;;;5.08;100.00;101153.75;4964421;28;20122;-76
2021/03/16 05:56:34;;;;;;;24.98;7.47;;;;;;;5.09;100.00;101154.53;4979074;23;20049;-76
2021/03/16 05:59:19;;;;;;;22.50;7.25;;;;;;;5.08;100.00;101167.09;4982554;28;20132;-76
2021/03/16 06:02:03;;;;;;;26.35;6.45;;;;;;;5.17;100.00;101165.25;4980644;28;20193;-76
2021/03/16 06:04:47;;;;;;;34.65;7.32;;;;;;;5.20;100.00;101167.31;4984030;28;20044;-76
2021/03/16 06:07:31;;;;;;;26.42;7.43;;;;;;;5.16;100.00;101166.34;4986230;28;20069;-76
2021/03/16 06:10:21;;;;;;;20.30;6.25;;;;;;;5.21;100.00;101173.44;4987597;28;20053;-76
2021/03/16 06:13:13;;;;;;;22.50;5.90;;;;;;;5.29;100.00;101170.03;5003827;28;20093;-76
2021/03/16 06:15:59;;;;;;;33.00;6.60;;;;;;;5.31;100.00;101168.63;4981725;28;20578;-76
2021/03/16 06:18:45;;;;;;;23.58;5.57;;;;;;;5.29;100.00;101172.69;4990310;28;20045;-76
2021/03/16 06:21:30;;;;;;;25.17;4.78;;;;;;;5.46;100.00;101176.25;4990564;28;20049;-76
2021/03/16 06:24:14;;;;;;;29.42;5.25;;;;;;;5.45;100.00;101169.34;4983406;28;20806;-76
2021/03/16 06:26:58;;;;;;;19.92;5.40;;;;;;;5.53;100.00;101183.03;4984633;28;20658;-76
2021/03/16 06:29:42;;;;;;;37.22;6.30;;;;;;;5.57;100.00;101184.00;4979882;28;20048;-76
2021/03/16 06:32:36;;;;;;;29.45;5.78;;;;;;;5.61;100.00;101185.75;4990414;28;20045;-76
2021/03/16 06:35:21;;;;;;;20.90;5.85;;;;;;;5.64;100.00;101189.66;4977484;28;20057;-76
2021/03/16 06:38:10;;;;;;;18.95;5.85;;;;;;;5.55;100.00;101180.84;4980167;28;20053;-76
2021/03/16 06:40:55;;;;;;;22.67;6.53;;;;;;;5.70;100.00;101183.09;4983917;28;20104;-76
2021/03/16 06:43:40;;;;;;;22.00;5.57;;;;;;;5.85;100.00;101182.69;4983636;28;20613;-76
2021/03/16 06:46:36;;;;;;;35.38;6.03;;;;;;;5.87;100.00;101183.97;4984116;28;20053;-76
2021/03/16 06:49:24;;;;;;;21.25;4.88;;;;;;;5.85;100.00;101188.03;4989843;28;20068;-76
2021/03/16 06:52:11;;;;;;;19.80;5.35;;;;;;;5.86;100.00;101185.09;4987067;28;20157;-77
2021/03/16 06:54:55;;;;;;;29.13;5.20;;;;;;;5.81;100.00;101189.72;4983464;28;20911;-76
2021/03/16 06:57:39;;;;;;;25.35;4.80;;;;;;;5.88;100.00;101193.59;4996575;28;20097;-76
2021/03/16 07:00:24;;;;;;;24.38;4.82;;;;;;;6.00;100.00;101198.34;4993633;28;20060;-76
2021/03/16 07:03:15;;;;;;;22.63;4.95;;;;;;;6.05;100.00;101190.94;4979101;28;20060;-76
2021/03/16 07:06:09;;;;;;;19.38;4.32;;;;;;;6.10;100.00;101193.47;4993241;28;20049;-76
2021/03/16 07:08:55;;;;;;;21.38;3.92;;;;;;;6.11;100.00;101196.94;4990070;28;20045;-76
2021/03/16 07:11:45;;;;;;;22.25;4.22;;;;;;;6.10;100.00;101204.16;4990867;28;20564;-76
2021/03/16 07:14:31;;;;;;;19.75;3.80;;;;;;;6.21;100.00;101205.44;4988631;28;20493;-76
2021/03/16 07:17:15;;;;;;;18.80;4.45;;;;;;;6.22;100.00;101208.91;5007620;28;20041;-76
2021/03/16 07:20:08;;;;;;;27.70;4.78;;;;;;;6.24;100.00;101209.38;4980340;28;20100;-75
2021/03/16 07:22:56;;;;;;;22.08;4.38;;;;;;;6.39;100.00;101207.06;4983793;28;20073;-76
2021/03/16 07:25:41;;;;;;;16.23;3.90;;;;;;;6.39;100.00;101209.72;4978529;28;20467;-76
2021/03/16 07:28:25;;;;;;;18.23;3.60;;;;;;;6.44;100.00;101221.38;4993873;28;20053;-76
2021/03/16 07:31:09;;;;;;;21.63;3.88;;;;;;;6.33;100.00;101218.19;4993441;28;20053;-76
2021/03/16 07:33:54;;;;;;;20.63;4.30;;;;;;;6.45;100.00;101226.41;4989849;28;20061;-76
2021/03/16 07:36:40;;;;;;;18.77;4.00;;;;;;;6.57;100.00;101223.13;4997420;28;20053;-76
2021/03/16 07:39:25;;;;;;;16.55;3.78;;;;;;;6.57;99.75;101223.13;4988006;28;20470;-76
2021/03/16 07:42:10;;;;;;;13.88;3.70;;;;;;;6.59;99.59;101232.41;4990457;28;20052;-76
2021/03/16 07:44:54;;;;;;;15.50;3.33;;;;;;;6.62;98.52;101226.44;4990863;28;20049;-76
2021/03/16 07:47:38;;;;;;;16.67;3.70;;;;;;;6.65;98.49;101231.16;4985133;28;20057;-76
2021/03/16 07:50:28;;;;;;;11.80;3.40;;;;;;;6.72;98.21;101239.50;4978379;28;20410;-76
2021/03/16 07:53:26;;;;;;;12.23;3.45;;;;;;;6.74;97.43;101242.66;4978464;28;20046;-76
2021/03/16 07:56:15;;;;;;;21.98;3.50;;;;;;;6.71;96.76;101243.28;4984791;28;20061;-76
2021/03/16 07:59:03;;;;;;;14.18;3.17;;;;;;;6.76;96.93;101247.69;4979073;28;20123;-77
2021/03/16 08:01:48;;;;;;;12.18;3.13;;;;;;;6.76;95.99;101237.78;4981473;28;20054;-76
2021/03/16 08:04:40;;;;;;;16.13;3.95;;;;;;;6.86;94.97;101247.38;4984027;28;20745;-76
2021/03/16 08:07:28;;;;;;;10.38;3.90;;;;;;;6.90;94.52;101242.97;4983763;28;20556;-76
2021/03/16 08:10:12;;;;;;;14.50;4.25;;;;;;;6.88;94.77;101253.22;4980496;28;20101;-76
2021/03/16 08:13:02;;;;;;;14.43;4.03;;;;;;;6.88;93.72;101243.28;4986319;28;20060;-76
2021/03/16 08:15:48;;;;;;;7.70;3.58;;;;;;;6.79;94.86;101255.91;4987510;28;20080;-76
2021/03/16 08:18:34;;;;;;;12.43;3.70;;;;;;;6.93;94.66;101261.09;4989495;28;20054;-76
2021/03/16 08:21:18;;;;;;;11.30;2.80;;;;;;;6.96;93.82;101266.59;4988187;28;20126;-76
2021/03/16 08:24:07;;;;;;;15.70;2.95;;;;;;;7.09;92.48;101264.84;4984307;28;20057;-76
2021/03/16 08:26:52;;;;;;;11.93;2.83;;;;;;;7.22;92.21;101271.94;4986128;28;20124;-76
2021/03/16 08:29:42;;;;;;;15.13;2.40;;;;;;;7.16;92.27;101275.91;4983802;28;20045;-76
2021/03/16 08:32:26;;;;;;;15.05;2.75;;;;;;;7.12;91.94;101278.41;4977286;28;20044;-76
2021/03/16 08:35:16;;;;;;;17.63;2.90;;;;;;;7.25;90.99;101264.06;4980791;28;20418;-76
2021/03/16 08:38:00;;;;;;;10.45;2.42;;;;;;;7.27;89.99;101264.53;4986963;28;20117;-76
2021/03/16 08:40:44;;;;;;;10.30;2.15;;;;;;;7.23;90.64;101268.97;4979732;28;20540;-76
2021/03/16 08:43:28;;;;;;;13.43;3.05;;;;;;;7.35;90.26;101267.50;4983562;28;20097;-76
2021/03/16 08:46:12;;;;;;;13.48;2.30;;;;;;;7.39;90.38;101266.56;4984559;28;20116;-76
2021/03/16 08:48:56;;;;;;;16.05;4.65;;;;;;;7.40;91.03;101267.34;4980528;28;20430;-76
2021/03/16 08:51:41;;;;;;;12.90;2.30;;;;;;;7.51;89.57;101276.63;4984429;28;20606;-76
2021/03/16 08:54:26;;;;;;;13.93;2.33;;;;;;;7.54;90.58;101266.06;4980847;28;20099;-76
2021/03/16 08:57:16;;;;;;;11.63;2.05;;;;;;;7.60;89.53;101269.34;4985834;28;20058;-76
2021/03/16 09:00:01;;;;;;;14.10;2.40;;;;;;;7.67;89.03;101275.00;4979299;28;20121;-76
2021/03/16 09:02:45;;;;;;;15.30;2.30;;;;;;;7.78;88.44;101271.66;4982133;28;20041;-76
2021/03/16 09:05:29;;;;;;;13.10;1.83;;;;;;;7.81;88.25;101275.59;4986525;28;20054;-76
2021/03/16 09:08:13;;;;;;;12.40;2.38;;;;;;;7.91;87.11;101267.22;4983682;28;20565;-76
2021/03/16 09:10:57;;;;;;;9.90;2.10;;;;;;;7.90;87.20;101277.16;4983585;28;20041;-76
2021/03/16 09:13:41;;;;;;;11.00;2.00;;;;;;;7.87;87.52;101271.66;4982990;28;20050;-76
2021/03/16 09:16:25;;;;;;;8.95;2.08;;;;;;;7.85;87.17;101276.53;4988095;28;20113;-76
2021/03/16 09:19:12;;;;;;;10.27;2.20;;;;;;;7.82;87.32;101280.63;4984689;28;20089;-76
2021/03/16 09:22:00;;;;;;;12.35;1.80;;;;;;;7.88;87.94;101275.88;4988403;28;20041;-76
2021/03/16 09:24:45;;;;;;;13.20;2.05;;;;;;;7.97;87.62;101282.03;4986653;28;20777;-76
2021/03/16 09:27:29;;;;;;;11.98;2.08;;;;;;;7.97;86.96;101290.06;4983879;28;20045;-76
2021/03/16 09:30:16;;;;;;;21.55;2.80;;;;;;;7.91;87.90;101277.94;4982768;28;20045;-76
2021/03/16 09:33:01;;;;;;;21.05;2.10;;;;;;;7.88;88.05;101282.03;4977851;28;20049;-76
2021/03/16 09:36:01;;;;;;;15.02;2.13;;;;;;;8.05;87.48;101276.59;4982509;28;20053;-76
2021/03/16 09:38:57;;;;;;;12.90;2.53;;;;;;;8.08;87.36;101281.34;4987510;28;20125;-76
2021/03/16 09:41:35;;;;;;;16.55;2.45;;;;;;;8.12;85.74;101284.16;4996702;28;20625;-77
2021/03/16 09:44:00;;;;;;;13.27;2.65;;;;;;;8.17;86.32;101286.66;4977973;28;20121;-76
2021/03/16 09:46:25;;;;;;;13.52;2.38;;;;;;;8.23;85.19;101279.25;4983808;28;20030;-77
2021/03/16 09:48:55;;;;;;;12.90;2.33;;;;;;;8.28;84.65;101287.91;4981868;28;20088;-76
2021/03/16 09:51:23;;;;;;;10.82;2.45;;;;;;;8.21;85.02;101287.59;4994488;28;20042;-76
2021/03/16 09:53:55;;;;;;;14.10;2.58;;;;;;;8.36;83.97;101289.78;4984711;28;20026;-76
2021/03/16 09:56:32;;;;;;;8.95;2.10;;;;;;;8.44;83.19;101294.28;4967613;28;20045;-76
2021/03/16 09:59:00;;;;;;;13.80;2.70;;;;;;;8.45;83.33;101295.88;4977982;28;20049;-76
2021/03/16 10:01:26;;;;;;;16.73;3.15;;;;;;;8.47;83.34;101290.97;4972942;28;20128;-76
2021/03/16 10:03:59;;;;;;;18.67;2.70;;;;;;;8.44;83.79;101290.84;4978575;28;20117;-76
2021/03/16 10:06:36;;;;;;;18.60;2.70;;;;;;;8.54;83.42;101291.22;4983125;28;20042;-76
2021/03/16 10:09:13;;;;;;;14.93;2.88;;;;;;;8.63;83.58;101304.63;4980562;28;20084;-76
2021/03/16 10:11:39;;;;;;;13.80;3.85;;;;;;;8.67;83.81;101300.19;4981570;28;20411;-76
2021/03/16 10:14:04;;;;;;;15.43;2.33;;;;;;;8.74;82.73;101305.81;4985777;28;20031;-76
2021/03/16 10:16:30;;;;;;;15.48;2.22;;;;;;;8.79;82.32;101319.81;4981078;28;20433;-76
2021/03/16 10:18:56;;;;;;;13.48;2.67;;;;;;;8.93;82.26;101322.25;4978046;28;20041;-76
2021/03/16 10:21:29;;;;;;;13.00;2.97;;;;;;;8.90;81.63;101314.88;4986065;28;20043;-76
2021/03/16 10:23:59;;;;;;;12.05;2.28;;;;;;;8.94;81.35;101318.47;4979380;28;20034;-76
2021/03/16 10:26:24;;;;;;;13.15;2.30;;;;;;;8.73;82.62;101310.38;4978261;28;20113;-76
2021/03/16 10:28:50;;;;;;;15.98;2.50;;;;;;;8.86;82.86;101320.09;4985365;28;20109;-76
2021/03/16 10:31:15;;;;;;;9.90;2.47;;;;;;;8.89;83.44;101324.03;4985703;28;20479;-76
2021/03/16 10:33:42;;;;;;;9.80;2.38;;;;;;;9.01;82.46;101316.03;4980103;28;20034;-76
2021/03/16 10:36:08;;;;;;;10.02;2.58;;;;;;;9.15;81.20;101319.25;4978674;28;20475;-76
2021/03/16 10:38:34;;;;;;;14.85;2.80;;;;;;;9.27;80.65;101326.59;4984471;28;20030;-76
2021/03/16 10:40:59;;;;;;;9.82;2.35;;;;;;;9.23;81.12;101328.38;4976422;28;20031;-76
2021/03/16 10:43:25;;;;;;;10.85;1.80;;;;;;;9.41;81.35;101319.03;4981843;28;20029;-77
2021/03/16 10:45:59;;;;;;;7.55;2.00;;;;;;;9.59;80.96;101321.25;4982451;28;20038;-76
2021/03/16 10:48:25;;;;;;;15.73;1.92;;;;;;;9.80;78.85;101313.91;5000737;28;20066;-76
2021/03/16 10:50:51;;;;;;;11.43;1.75;;;;;;;9.71;79.38;101323.19;4982716;28;20085;-77
2021/03/16 10:53:18;;;;;;;12.02;2.10;;;;;;;9.72;79.15;101312.06;4982617;28;20819;-76
2021/03/16 10:55:44;;;;;;;18.77;2.45;;;;;;;9.84;78.44;101324.78;4980552;28;20533;-77
2021/03/16 10:58:09;;;;;;;13.90;2.40;;;;;;;10.01;77.66;101327.28;4983183;28;20027;-75
2021/03/16 11:00:36;;;;;;;10.50;2.20;;;;;;;10.14;75.87;101317.34;4986173;28;20034;-75
2021/03/16 11:03:02;;;;;;;12.13;2.28;;;;;;;9.97;76.20;101318.28;4981819;28;20022;-77
2021/03/16 11:05:28;;;;;;;9.18;2.08;;;;;;;10.00;76.33;101326.50;4983885;28;20113;-74
2021/03/16 11:07:53;;;;;;;8.27;2.30;;;;;;;9.98;76.46;101325.25;4980693;28;20110;-77
2021/03/16 11:10:19;;;;;;;11.18;2.05;;;;;;;9.94;75.84;101325.16;4984506;28;20113;-75
2021/03/16 11:12:44;;;;;;;15.57;1.90;;;;;;;9.81;77.19;101320.84;4983353;28;20109;-77
2021/03/16 11:15:10;;;;;;;9.57;1.85;;;;;;;9.96;76.80;101332.88;4987077;28;20410;-76
2021/03/16 11:17:36;;;;;;;11.60;2.20;;;;;;;9.93;76.36;101342.38;4983115;28;20038;-74
2021/03/16 11:20:02;;;;;;;12.32;2.13;;;;;;;9.85;76.49;101335.19;5001188;28;20022;-76
2021/03/16 11:22:28;;;;;;;11.15;2.30;;;;;;;10.02;76.41;101329.66;4988755;28;20030;-77
2021/03/16 11:24:53;;;;;;;7.05;2.10;;;;;;;10.36;74.06;101333.06;4980831;28;20039;-75
2021/03/16 11:27:19;;;;;;;11.43;2.15;;;;;;;10.45;74.19;101337.22;4981719;28;20089;-77
2021/03/16 11:29:44;;;;;;;11.68;1.75;;;;;;;10.36;74.72;101339.22;4994959;28;20372;-76
2021/03/16 11:32:10;;;;;;;14.32;1.98;;;;;;;10.35;73.08;101342.25;4978731;28;20483;-76
2021/03/16 11:34:54;;;;;;;13.57;1.98;;;;;;;10.28;72.90;101353.56;4978535;28;20106;-77
2021/03/16 11:37:38;;;;;;;9.98;1.73;;;;;;;10.26;73.32;101352.34;4980054;28;20058;-77
2021/03/16 11:40:22;;;;;;;11.23;1.73;;;;;;;10.35;71.65;101344.97;4998895;28;20055;-75
2021/03/16 11:43:06;;;;;;;11.60;1.70;;;;;;;10.28;73.03;101342.81;4990096;28;20058;-77
2021/03/16 11:45:50;;;;;;;13.43;1.80;;;;;;;10.37;72.42;101340.81;4984376;28;20073;-76
2021/03/16 11:48:35;;;;;;;12.98;1.88;;;;;;;10.45;72.71;101345.28;4986050;28;20046;-77
2021/03/16 11:51:18;;;;;;;10.70;1.90;;;;;;;10.68;72.25;101340.25;4985407;28;20125;-76
2021/03/16 11:54:03;;;;;;;8.77;1.77;;;;;;;10.79;70.32;101335.97;4986621;28;20061;-77
2021/03/16 11:56:47;;;;;;;17.52;2.10;;;;;;;10.65;71.46;101336.31;4989453;28;20041;-75
2021/03/16 11:59:31;;;;;;;13.15;2.22;;;;;;;10.60;71.66;101343.84;4985526;28;20410;-76
2021/03/16 12:02:16;;;;;;;11.20;2.17;;;;;;;10.60;72.54;101336.56;4989764;28;20053;-76
2021/03/16 12:05:00;;;;;;;11.65;2.22;;;;;;;10.70;71.67;101335.31;4989876;28;20069;-76
2021/03/16 12:07:44;;;;;;;18.50;2.60;;;;;;;10.52;71.90;101334.75;4986959;28;20069;-77
2021/03/16 12:10:29;;;;;;;14.55;1.95;;;;;;;10.50;72.75;101339.69;4982664;28;20050;-77
2021/03/16 12:13:13;;;;;;;13.00;1.88;;;;;;;10.47;72.69;101337.66;4982571;28;21433;-77
2021/03/16 12:15:57;;;;;;;12.73;1.92;;;;;;;10.54;70.94;101335.22;4991792;28;20045;-76
2021/03/16 12:18:41;;;;;;;6.75;1.77;;;;;;;10.47;71.54;101339.59;4988769;28;20050;-77
2021/03/16 12:21:25;;;;;;;11.95;2.20;;;;;;;10.44;70.21;101340.25;4985297;28;20141;-77
2021/03/16 12:24:10;;;;;;;5.57;1.38;;;;;;;10.44;69.79;101335.66;4988368;28;20053;-77